"TOA5","C150","CR1000","43625","CR1000.Std.22","CPU:247411_r6_eppley7.CR1","60899","eppley_data"
"TIMESTAMP","RECORD","PIR_net","Case_Temp_K","PSP_in_Avg","PSP_in_Min","PSP_in_Max","PIR_in_Avg","PIR_in_Min","PIR_in_Max","wd_2minavg","ws_2minavg","AirTC","RH","BP_mbar"
"TS","RN","","","","","","","","","","","Deg C","Percent","Millibar"
"","","Smp","Smp","Avg","Min","Max","Avg","Min","Max","Smp","Smp","Smp","Smp","Smp"
"2019-05-09 22:10:00",64517,"NAN","NAN","NAN","NAN","NAN","NAN","NAN","NAN",340.2,1.758,-16.66,59.8,980
"2019-05-09 22:20:00",64518,"NAN","NAN","NAN","NAN","NAN","NAN","NAN","NAN",337.8,1.907,-18.27,63.05,980
"2019-05-09 22:30:00",64519,"NAN","NAN","NAN","NAN","NAN","NAN","NAN","NAN",345.9,1.737,-17.76,66.87,980
"2019-05-09 22:40:00",64520,"NAN","NAN","NAN","NAN","NAN","NAN","NAN","NAN",347.5,1.405,-17.89,64.74,980
"2019-05-09 22:50:00",64521,"NAN","NAN","NAN","NAN","NAN","NAN","NAN","NAN",75.43,2.094,-18.58,68.09,980
"2019-05-09 23:00:00",64522,"NAN","NAN","NAN","NAN","NAN","NAN","NAN","NAN",45.39,1.838,-15.47,67.03,980
"2019-05-09 23:10:00",64523,"NAN","NAN","NAN","NAN","NAN","NAN","NAN","NAN",56.51,2.465,-17.08,68.36,980
"2019-05-09 23:20:00",64524,"NAN","NAN","NAN","NAN","NAN","NAN","NAN","NAN",95.7,2.402,-13.56,59.07,980
"2019-05-09 23:30:00",64525,"NAN","NAN","NAN","NAN","NAN","NAN","NAN","NAN",150.1,5.504,-12.84,53.91,981
"2019-05-09 23:40:00",64526,"NAN","NAN","NAN","NAN","NAN","NAN","NAN","NAN",139.4,6.588,-12.91,58.68,981
"2019-05-09 23:50:00",64527,"NAN","NAN","NAN","NAN","NAN","NAN","NAN","NAN",130.8,5.798,-13.46,61.31,981
"2019-05-10 00:00:00",64528,"NAN","NAN","NAN","NAN","NAN","NAN","NAN","NAN",132.4,6.068,-12.85,59.73,981
"2019-05-10 00:10:00",64529,"NAN","NAN","NAN","NAN","NAN","NAN","NAN","NAN",138,8.27,-11.56,55.72,981
"2019-05-10 00:20:00",64530,244.5,"NAN","NAN","NAN","NAN","NAN","NAN","NAN",125.5,7.21,-12,56.85,981
"2019-05-10 00:30:00",64531,"NAN","NAN","NAN",738.9,738.9,"NAN","NAN","NAN",119.7,4.377,-12.9,60.39,981
"2019-05-10 00:40:00",64532,"NAN","NAN","NAN",-2830,-2264,"NAN","NAN","NAN",110.4,3.358,-12.69,58.88,981
"2019-05-10 00:50:00",64533,"NAN","NAN",-1872,-2615,-1524,"NAN","NAN","NAN",142.6,4.728,-12.66,61.13,981
"2019-05-10 01:00:00",64534,"NAN","NAN","NAN",-1748,-314.1,"NAN","NAN","NAN",137.7,7.222,-12.83,60.65,981
"2019-05-10 01:10:00",64535,"NAN","NAN",-1125,-2671,331.9,"NAN","NAN","NAN",141.8,8.12,-12.97,74.13,981
"2019-05-10 01:20:00",64536,"NAN","NAN",-874,-1777,456.3,"NAN","NAN","NAN",146.4,12.43,-12.32,66.21,981
"2019-05-10 01:30:00",64537,"NAN","NAN","NAN",-501.4,700.9,"NAN","NAN","NAN",150.4,7.673,-12.39,64.44,981
"2019-05-10 01:40:00",64538,"NAN","NAN",-1537,-2435,412.5,"NAN","NAN","NAN",146.9,6.546,-12.49,62.22,981
"2019-05-10 01:50:00",64539,"NAN","NAN","NAN",-2832,-2414,"NAN","NAN","NAN",128.4,4.231,-12.49,60.44,981
"2019-05-10 02:00:00",64540,"NAN","NAN","NAN",-2828,1344,"NAN","NAN","NAN",122.7,3.526,-12.63,60.44,981